sensor_id;sensor_type;location;lat;lon;timestamp;P1;durP1;ratioP1;P2;durP2;ratioP2
68449;SDS011;67758;39.572;2.652;2023-03-14T00:01:57;18.20;;;6.35;;
68449;SDS011;67758;39.572;2.652;2023-03-14T00:04:25;17.17;;;5.85;;
68449;SDS011;67758;39.572;2.652;2023-03-14T00:06:51;15.13;;;5.73;;
68449;SDS011;67758;39.572;2.652;2023-03-14T00:09:17;19.70;;;6.07;;
68449;SDS011;67758;39.572;2.652;2023-03-14T00:11:45;16.85;;;5.38;;
68449;SDS011;67758;39.572;2.652;2023-03-14T00:14:11;17.03;;;5.07;;
68449;SDS011;67758;39.572;2.652;2023-03-14T00:16:37;20.27;;;5.43;;
68449;SDS011;67758;39.572;2.652;2023-03-14T00:19:02;17.50;;;5.33;;
68449;SDS011;67758;39.572;2.652;2023-03-14T00:21:28;21.37;;;5.43;;
68449;SDS011;67758;39.572;2.652;2023-03-14T00:23:54;16.97;;;5.60;;
68449;SDS011;67758;39.572;2.652;2023-03-14T00:26:20;17.90;;;5.00;;
68449;SDS011;67758;39.572;2.652;2023-03-14T00:28:46;16.20;;;3.60;;
68449;SDS011;67758;39.572;2.652;2023-03-14T00:31:16;12.45;;;3.15;;
68449;SDS011;67758;39.572;2.652;2023-03-14T00:33:42;11.77;;;3.30;;
68449;SDS011;67758;39.572;2.652;2023-03-14T00:36:10;10.43;;;3.03;;
68449;SDS011;67758;39.572;2.652;2023-03-14T00:38:37;13.17;;;3.27;;
68449;SDS011;67758;39.572;2.652;2023-03-14T00:41:05;14.68;;;3.17;;
68449;SDS011;67758;39.572;2.652;2023-03-14T00:43:33;9.85;;;1.77;;
68449;SDS011;67758;39.572;2.652;2023-03-14T00:45:58;9.63;;;2.10;;
68449;SDS011;67758;39.572;2.652;2023-03-14T00:48:24;7.63;;;1.40;;
68449;SDS011;67758;39.572;2.652;2023-03-14T00:50:50;6.30;;;1.23;;
68449;SDS011;67758;39.572;2.652;2023-03-14T00:53:16;5.88;;;0.90;;
68449;SDS011;67758;39.572;2.652;2023-03-14T00:55:43;9.43;;;1.10;;
68449;SDS011;67758;39.572;2.652;2023-03-14T00:58:10;8.98;;;1.58;;
68449;SDS011;67758;39.572;2.652;2023-03-14T01:00:37;10.95;;;1.55;;
68449;SDS011;67758;39.572;2.652;2023-03-14T01:03:04;10.55;;;1.05;;
68449;SDS011;67758;39.572;2.652;2023-03-14T01:05:30;9.73;;;1.48;;
68449;SDS011;67758;39.572;2.652;2023-03-14T01:07:56;9.60;;;1.33;;
68449;SDS011;67758;39.572;2.652;2023-03-14T01:10:24;9.23;;;1.40;;
68449;SDS011;67758;39.572;2.652;2023-03-14T01:12:50;7.95;;;1.33;;
68449;SDS011;67758;39.572;2.652;2023-03-14T01:15:16;7.20;;;1.13;;
68449;SDS011;67758;39.572;2.652;2023-03-14T01:17:42;14.13;;;2.00;;
68449;SDS011;67758;39.572;2.652;2023-03-14T01:20:08;5.27;;;0.83;;
68449;SDS011;67758;39.572;2.652;2023-03-14T01:22:36;10.57;;;1.43;;
68449;SDS011;67758;39.572;2.652;2023-03-14T01:25:03;11.93;;;1.00;;
68449;SDS011;67758;39.572;2.652;2023-03-14T01:27:30;9.63;;;1.73;;
68449;SDS011;67758;39.572;2.652;2023-03-14T01:29:55;8.73;;;1.20;;
68449;SDS011;67758;39.572;2.652;2023-03-14T01:32:21;8.73;;;1.27;;
68449;SDS011;67758;39.572;2.652;2023-03-14T01:34:47;7.83;;;1.37;;
68449;SDS011;67758;39.572;2.652;2023-03-14T01:37:12;13.98;;;1.30;;
68449;SDS011;67758;39.572;2.652;2023-03-14T01:39:38;5.63;;;0.60;;
68449;SDS011;67758;39.572;2.652;2023-03-14T01:42:04;9.35;;;1.40;;
68449;SDS011;67758;39.572;2.652;2023-03-14T01:47:15;6.57;;;1.25;;
68449;SDS011;67758;39.572;2.652;2023-03-14T01:49:41;8.73;;;1.52;;
68449;SDS011;67758;39.572;2.652;2023-03-14T01:52:18;11.50;;;1.33;;
68449;SDS011;67758;39.572;2.652;2023-03-14T01:54:52;10.27;;;1.25;;
68449;SDS011;67758;39.572;2.652;2023-03-14T01:57:29;10.27;;;1.10;;
68449;SDS011;67758;39.572;2.652;2023-03-14T02:00:32;9.00;;;1.30;;
68449;SDS011;67758;39.572;2.652;2023-03-14T02:02:55;7.38;;;1.35;;
68449;SDS011;67758;39.572;2.652;2023-03-14T02:05:25;10.70;;;1.63;;
68449;SDS011;67758;39.572;2.652;2023-03-14T02:07:55;10.13;;;1.30;;
68449;SDS011;67758;39.572;2.652;2023-03-14T02:10:23;9.07;;;1.30;;
68449;SDS011;67758;39.572;2.652;2023-03-14T02:12:52;8.93;;;0.90;;
68449;SDS011;67758;39.572;2.652;2023-03-14T02:15:20;4.88;;;0.70;;
68449;SDS011;67758;39.572;2.652;2023-03-14T02:17:46;7.80;;;1.03;;
68449;SDS011;67758;39.572;2.652;2023-03-14T02:20:23;9.45;;;0.90;;
68449;SDS011;67758;39.572;2.652;2023-03-14T02:23:00;6.97;;;0.77;;
68449;SDS011;67758;39.572;2.652;2023-03-14T02:25:44;5.10;;;0.52;;
68449;SDS011;67758;39.572;2.652;2023-03-14T02:28:14;7.93;;;0.80;;
68449;SDS011;67758;39.572;2.652;2023-03-14T02:30:41;5.07;;;0.60;;
68449;SDS011;67758;39.572;2.652;2023-03-14T02:33:10;6.38;;;0.80;;
68449;SDS011;67758;39.572;2.652;2023-03-14T02:35:43;4.90;;;0.80;;
68449;SDS011;67758;39.572;2.652;2023-03-14T02:40:50;11.35;;;0.95;;
68449;SDS011;67758;39.572;2.652;2023-03-14T02:43:16;5.72;;;0.70;;
68449;SDS011;67758;39.572;2.652;2023-03-14T02:45:48;11.87;;;0.90;;
68449;SDS011;67758;39.572;2.652;2023-03-14T02:48:20;9.10;;;1.17;;
68449;SDS011;67758;39.572;2.652;2023-03-14T02:50:50;5.55;;;0.52;;
68449;SDS011;67758;39.572;2.652;2023-03-14T02:53:20;9.15;;;0.95;;
68449;SDS011;67758;39.572;2.652;2023-03-14T02:55:50;6.85;;;0.80;;
68449;SDS011;67758;39.572;2.652;2023-03-14T02:58:16;8.70;;;0.90;;
68449;SDS011;67758;39.572;2.652;2023-03-14T03:00:42;4.35;;;0.52;;
68449;SDS011;67758;39.572;2.652;2023-03-14T03:03:08;7.93;;;0.90;;
68449;SDS011;67758;39.572;2.652;2023-03-14T03:05:34;7.32;;;0.77;;
68449;SDS011;67758;39.572;2.652;2023-03-14T03:08:03;7.47;;;0.90;;
68449;SDS011;67758;39.572;2.652;2023-03-14T03:10:29;5.88;;;0.52;;
68449;SDS011;67758;39.572;2.652;2023-03-14T03:12:55;7.93;;;0.90;;
68449;SDS011;67758;39.572;2.652;2023-03-14T03:15:21;5.70;;;0.60;;
68449;SDS011;67758;39.572;2.652;2023-03-14T03:17:48;8.15;;;0.60;;
68449;SDS011;67758;39.572;2.652;2023-03-14T03:20:13;4.30;;;0.63;;
68449;SDS011;67758;39.572;2.652;2023-03-14T03:22:39;6.47;;;0.50;;
68449;SDS011;67758;39.572;2.652;2023-03-14T03:25:05;7.37;;;0.60;;
68449;SDS011;67758;39.572;2.652;2023-03-14T03:27:33;10.52;;;0.98;;
68449;SDS011;67758;39.572;2.652;2023-03-14T03:30:00;7.55;;;0.73;;
68449;SDS011;67758;39.572;2.652;2023-03-14T03:32:26;8.52;;;0.68;;
68449;SDS011;67758;39.572;2.652;2023-03-14T03:34:52;9.87;;;0.97;;
68449;SDS011;67758;39.572;2.652;2023-03-14T03:37:18;6.55;;;0.70;;
68449;SDS011;67758;39.572;2.652;2023-03-14T03:39:44;7.70;;;0.75;;
68449;SDS011;67758;39.572;2.652;2023-03-14T03:42:09;6.47;;;0.43;;
68449;SDS011;67758;39.572;2.652;2023-03-14T03:44:35;6.18;;;0.50;;
68449;SDS011;67758;39.572;2.652;2023-03-14T03:47:01;7.50;;;0.57;;
68449;SDS011;67758;39.572;2.652;2023-03-14T03:49:32;4.88;;;0.55;;
68449;SDS011;67758;39.572;2.652;2023-03-14T03:51:58;5.97;;;0.70;;
68449;SDS011;67758;39.572;2.652;2023-03-14T03:54:24;5.65;;;0.90;;
68449;SDS011;67758;39.572;2.652;2023-03-14T03:56:51;7.63;;;0.47;;
68449;SDS011;67758;39.572;2.652;2023-03-14T03:59:16;5.67;;;0.50;;
68449;SDS011;67758;39.572;2.652;2023-03-14T04:01:42;4.45;;;0.60;;
68449;SDS011;67758;39.572;2.652;2023-03-14T04:04:08;8.57;;;0.60;;
68449;SDS011;67758;39.572;2.652;2023-03-14T04:06:34;7.43;;;0.50;;
68449;SDS011;67758;39.572;2.652;2023-03-14T04:09:00;7.25;;;0.60;;
68449;SDS011;67758;39.572;2.652;2023-03-14T04:11:25;6.03;;;0.70;;
68449;SDS011;67758;39.572;2.652;2023-03-14T04:13:51;10.25;;;0.80;;
68449;SDS011;67758;39.572;2.652;2023-03-14T04:16:18;6.70;;;0.90;;
68449;SDS011;67758;39.572;2.652;2023-03-14T04:18:47;7.60;;;0.77;;
68449;SDS011;67758;39.572;2.652;2023-03-14T04:21:14;6.50;;;0.80;;
68449;SDS011;67758;39.572;2.652;2023-03-14T04:23:40;6.68;;;0.43;;
68449;SDS011;67758;39.572;2.652;2023-03-14T04:26:06;7.17;;;0.50;;
68449;SDS011;67758;39.572;2.652;2023-03-14T04:28:31;6.63;;;0.70;;
68449;SDS011;67758;39.572;2.652;2023-03-14T04:30:57;5.00;;;0.60;;
68449;SDS011;67758;39.572;2.652;2023-03-14T04:33:23;9.87;;;0.80;;
68449;SDS011;67758;39.572;2.652;2023-03-14T04:35:49;7.13;;;0.65;;
68449;SDS011;67758;39.572;2.652;2023-03-14T04:38:19;7.20;;;0.50;;
68449;SDS011;67758;39.572;2.652;2023-03-14T04:40:45;7.05;;;0.70;;
68449;SDS011;67758;39.572;2.652;2023-03-14T04:43:10;6.05;;;0.63;;
68449;SDS011;67758;39.572;2.652;2023-03-14T04:45:36;6.40;;;0.73;;
68449;SDS011;67758;39.572;2.652;2023-03-14T04:48:02;6.35;;;0.65;;
68449;SDS011;67758;39.572;2.652;2023-03-14T04:50:28;9.18;;;0.90;;
68449;SDS011;67758;39.572;2.652;2023-03-14T04:52:54;5.10;;;0.73;;
68449;SDS011;67758;39.572;2.652;2023-03-14T04:55:19;8.13;;;1.02;;
68449;SDS011;67758;39.572;2.652;2023-03-14T04:57:45;6.67;;;0.63;;
68449;SDS011;67758;39.572;2.652;2023-03-14T05:00:11;6.47;;;0.50;;
68449;SDS011;67758;39.572;2.652;2023-03-14T05:02:37;11.38;;;0.57;;
68449;SDS011;67758;39.572;2.652;2023-03-14T05:05:03;4.25;;;0.40;;
68449;SDS011;67758;39.572;2.652;2023-03-14T05:07:29;8.38;;;0.98;;
68449;SDS011;67758;39.572;2.652;2023-03-14T05:09:55;7.30;;;0.97;;
68449;SDS011;67758;39.572;2.652;2023-03-14T05:12:20;6.80;;;0.70;;
68449;SDS011;67758;39.572;2.652;2023-03-14T05:14:46;10.55;;;0.73;;
68449;SDS011;67758;39.572;2.652;2023-03-14T05:17:12;4.20;;;0.70;;
68449;SDS011;67758;39.572;2.652;2023-03-14T05:19:39;7.13;;;0.63;;
68449;SDS011;67758;39.572;2.652;2023-03-14T05:22:06;10.07;;;0.80;;
68449;SDS011;67758;39.572;2.652;2023-03-14T05:24:32;8.23;;;0.95;;
68449;SDS011;67758;39.572;2.652;2023-03-14T05:26:58;6.40;;;0.55;;
68449;SDS011;67758;39.572;2.652;2023-03-14T05:29:24;9.37;;;0.60;;
68449;SDS011;67758;39.572;2.652;2023-03-14T05:31:49;7.10;;;0.80;;
68449;SDS011;67758;39.572;2.652;2023-03-14T05:34:15;4.17;;;0.30;;
68449;SDS011;67758;39.572;2.652;2023-03-14T05:36:41;9.18;;;1.08;;
68449;SDS011;67758;39.572;2.652;2023-03-14T05:39:06;12.57;;;0.90;;
68449;SDS011;67758;39.572;2.652;2023-03-14T05:41:32;8.33;;;0.63;;
68449;SDS011;67758;39.572;2.652;2023-03-14T05:43:58;8.45;;;0.82;;
68449;SDS011;67758;39.572;2.652;2023-03-14T05:46:24;13.30;;;0.93;;
68449;SDS011;67758;39.572;2.652;2023-03-14T05:48:49;4.60;;;0.50;;
68449;SDS011;67758;39.572;2.652;2023-03-14T05:51:15;7.90;;;0.70;;
68449;SDS011;67758;39.572;2.652;2023-03-14T05:53:41;10.82;;;0.80;;
68449;SDS011;67758;39.572;2.652;2023-03-14T05:56:07;6.43;;;0.80;;
68449;SDS011;67758;39.572;2.652;2023-03-14T05:58:33;8.35;;;0.80;;
68449;SDS011;67758;39.572;2.652;2023-03-14T06:01:02;7.80;;;0.52;;
68449;SDS011;67758;39.572;2.652;2023-03-14T06:03:29;7.65;;;0.63;;
68449;SDS011;67758;39.572;2.652;2023-03-14T06:05:55;9.03;;;0.80;;
68449;SDS011;67758;39.572;2.652;2023-03-14T06:08:32;7.20;;;0.80;;
68449;SDS011;67758;39.572;2.652;2023-03-14T06:11:11;4.73;;;0.60;;
68449;SDS011;67758;39.572;2.652;2023-03-14T06:13:37;5.15;;;0.35;;
68449;SDS011;67758;39.572;2.652;2023-03-14T06:16:02;6.97;;;0.50;;
68449;SDS011;67758;39.572;2.652;2023-03-14T06:18:28;7.70;;;0.55;;
68449;SDS011;67758;39.572;2.652;2023-03-14T06:20:54;6.75;;;0.50;;
68449;SDS011;67758;39.572;2.652;2023-03-14T06:23:20;7.07;;;0.90;;
68449;SDS011;67758;39.572;2.652;2023-03-14T06:25:46;6.68;;;0.80;;
68449;SDS011;67758;39.572;2.652;2023-03-14T06:28:12;9.32;;;0.60;;
68449;SDS011;67758;39.572;2.652;2023-03-14T06:30:38;6.57;;;0.60;;
68449;SDS011;67758;39.572;2.652;2023-03-14T06:33:04;7.80;;;0.85;;
68449;SDS011;67758;39.572;2.652;2023-03-14T06:35:29;4.43;;;0.47;;
68449;SDS011;67758;39.572;2.652;2023-03-14T06:37:55;9.15;;;1.33;;
68449;SDS011;67758;39.572;2.652;2023-03-14T06:40:21;9.57;;;0.73;;
68449;SDS011;67758;39.572;2.652;2023-03-14T06:42:47;8.20;;;1.25;;
68449;SDS011;67758;39.572;2.652;2023-03-14T06:45:13;8.32;;;0.80;;
68449;SDS011;67758;39.572;2.652;2023-03-14T06:47:39;12.57;;;1.10;;
68449;SDS011;67758;39.572;2.652;2023-03-14T06:50:06;7.47;;;0.80;;
68449;SDS011;67758;39.572;2.652;2023-03-14T06:52:32;8.27;;;0.60;;
68449;SDS011;67758;39.572;2.652;2023-03-14T06:54:58;6.37;;;0.70;;
68449;SDS011;67758;39.572;2.652;2023-03-14T06:57:24;8.43;;;1.50;;
68449;SDS011;67758;39.572;2.652;2023-03-14T06:59:49;4.57;;;0.40;;
68449;SDS011;67758;39.572;2.652;2023-03-14T07:02:15;9.30;;;0.70;;
68449;SDS011;67758;39.572;2.652;2023-03-14T07:04:41;9.37;;;0.80;;
68449;SDS011;67758;39.572;2.652;2023-03-14T07:07:09;8.90;;;1.35;;
68449;SDS011;67758;39.572;2.652;2023-03-14T07:09:34;9.45;;;1.05;;
68449;SDS011;67758;39.572;2.652;2023-03-14T07:12:00;13.77;;;1.30;;
68449;SDS011;67758;39.572;2.652;2023-03-14T07:14:26;10.13;;;1.45;;
68449;SDS011;67758;39.572;2.652;2023-03-14T07:16:53;9.90;;;1.30;;
68449;SDS011;67758;39.572;2.652;2023-03-14T07:19:19;9.33;;;1.57;;
68449;SDS011;67758;39.572;2.652;2023-03-14T07:21:44;12.68;;;1.40;;
68449;SDS011;67758;39.572;2.652;2023-03-14T07:24:10;8.37;;;1.03;;
68449;SDS011;67758;39.572;2.652;2023-03-14T07:26:35;11.27;;;0.90;;
68449;SDS011;67758;39.572;2.652;2023-03-14T07:29:01;13.68;;;1.50;;
68449;SDS011;67758;39.572;2.652;2023-03-14T07:31:31;11.57;;;1.33;;
68449;SDS011;67758;39.572;2.652;2023-03-14T07:33:57;11.63;;;1.07;;
68449;SDS011;67758;39.572;2.652;2023-03-14T07:36:25;11.25;;;0.85;;
68449;SDS011;67758;39.572;2.652;2023-03-14T07:38:51;13.00;;;1.20;;
68449;SDS011;67758;39.572;2.652;2023-03-14T07:41:17;9.93;;;1.25;;
68449;SDS011;67758;39.572;2.652;2023-03-14T07:43:49;10.85;;;1.48;;
68449;SDS011;67758;39.572;2.652;2023-03-14T07:46:23;9.95;;;1.13;;
68449;SDS011;67758;39.572;2.652;2023-03-14T07:49:01;9.25;;;1.02;;
68449;SDS011;67758;39.572;2.652;2023-03-14T07:51:29;10.20;;;0.80;;
68449;SDS011;67758;39.572;2.652;2023-03-14T07:53:55;10.20;;;0.93;;
68449;SDS011;67758;39.572;2.652;2023-03-14T07:56:20;9.80;;;1.10;;
68449;SDS011;67758;39.572;2.652;2023-03-14T07:58:46;10.35;;;0.80;;
68449;SDS011;67758;39.572;2.652;2023-03-14T08:01:12;12.03;;;1.20;;
68449;SDS011;67758;39.572;2.652;2023-03-14T08:03:38;11.65;;;1.15;;
68449;SDS011;67758;39.572;2.652;2023-03-14T08:06:03;10.83;;;1.27;;
68449;SDS011;67758;39.572;2.652;2023-03-14T08:08:29;9.57;;;0.80;;
68449;SDS011;67758;39.572;2.652;2023-03-14T08:11:01;13.27;;;0.93;;
68449;SDS011;67758;39.572;2.652;2023-03-14T08:13:31;8.33;;;1.10;;
68449;SDS011;67758;39.572;2.652;2023-03-14T08:15:58;8.35;;;1.10;;
68449;SDS011;67758;39.572;2.652;2023-03-14T08:18:24;8.32;;;1.00;;
68449;SDS011;67758;39.572;2.652;2023-03-14T08:20:49;5.30;;;0.83;;
68449;SDS011;67758;39.572;2.652;2023-03-14T08:23:15;11.37;;;0.80;;
68449;SDS011;67758;39.572;2.652;2023-03-14T08:25:41;8.55;;;0.80;;
68449;SDS011;67758;39.572;2.652;2023-03-14T08:28:06;9.17;;;1.23;;
68449;SDS011;67758;39.572;2.652;2023-03-14T08:30:32;11.57;;;1.90;;
68449;SDS011;67758;39.572;2.652;2023-03-14T08:32:58;7.55;;;1.00;;
68449;SDS011;67758;39.572;2.652;2023-03-14T08:35:24;14.23;;;1.43;;
68449;SDS011;67758;39.572;2.652;2023-03-14T08:37:50;4.22;;;0.70;;
68449;SDS011;67758;39.572;2.652;2023-03-14T08:40:17;9.35;;;1.20;;
68449;SDS011;67758;39.572;2.652;2023-03-14T08:42:44;4.82;;;0.45;;
68449;SDS011;67758;39.572;2.652;2023-03-14T08:45:13;4.00;;;0.60;;
68449;SDS011;67758;39.572;2.652;2023-03-14T08:47:41;4.00;;;0.30;;
68449;SDS011;67758;39.572;2.652;2023-03-14T08:50:10;3.45;;;0.40;;
68449;SDS011;67758;39.572;2.652;2023-03-14T08:52:36;7.47;;;0.40;;
68449;SDS011;67758;39.572;2.652;2023-03-14T08:55:07;5.28;;;0.60;;
68449;SDS011;67758;39.572;2.652;2023-03-14T08:57:36;5.95;;;0.32;;
68449;SDS011;67758;39.572;2.652;2023-03-14T09:00:03;6.17;;;0.53;;
68449;SDS011;67758;39.572;2.652;2023-03-14T09:02:42;2.22;;;0.30;;
68449;SDS011;67758;39.572;2.652;2023-03-14T09:05:19;2.65;;;0.30;;
68449;SDS011;67758;39.572;2.652;2023-03-14T09:07:44;3.90;;;0.67;;
68449;SDS011;67758;39.572;2.652;2023-03-14T09:10:10;4.97;;;0.50;;
68449;SDS011;67758;39.572;2.652;2023-03-14T09:12:39;2.30;;;0.50;;
68449;SDS011;67758;39.572;2.652;2023-03-14T09:15:05;2.58;;;0.47;;
68449;SDS011;67758;39.572;2.652;2023-03-14T09:17:32;2.47;;;0.40;;
68449;SDS011;67758;39.572;2.652;2023-03-14T09:19:57;3.77;;;0.50;;
68449;SDS011;67758;39.572;2.652;2023-03-14T09:22:23;3.22;;;0.52;;
68449;SDS011;67758;39.572;2.652;2023-03-14T09:24:49;4.87;;;0.60;;
68449;SDS011;67758;39.572;2.652;2023-03-14T09:27:15;11.05;;;0.85;;
68449;SDS011;67758;39.572;2.652;2023-03-14T09:29:40;4.20;;;0.47;;
68449;SDS011;67758;39.572;2.652;2023-03-14T09:32:06;14.27;;;0.90;;
68449;SDS011;67758;39.572;2.652;2023-03-14T09:34:32;4.05;;;0.50;;
68449;SDS011;67758;39.572;2.652;2023-03-14T09:36:59;4.28;;;0.80;;
68449;SDS011;67758;39.572;2.652;2023-03-14T09:39:25;5.60;;;0.60;;
68449;SDS011;67758;39.572;2.652;2023-03-14T09:41:51;7.93;;;0.90;;
68449;SDS011;67758;39.572;2.652;2023-03-14T09:44:27;8.18;;;0.73;;
68449;SDS011;67758;39.572;2.652;2023-03-14T09:47:03;5.57;;;0.70;;
68449;SDS011;67758;39.572;2.652;2023-03-14T09:49:41;4.10;;;0.50;;
68449;SDS011;67758;39.572;2.652;2023-03-14T09:55:18;5.10;;;0.82;;
68449;SDS011;67758;39.572;2.652;2023-03-14T09:57:47;2.67;;;0.45;;
68449;SDS011;67758;39.572;2.652;2023-03-14T10:02:48;7.72;;;1.02;;
68449;SDS011;67758;39.572;2.652;2023-03-14T10:05:21;6.37;;;0.60;;
68449;SDS011;67758;39.572;2.652;2023-03-14T10:07:52;5.10;;;0.60;;
68449;SDS011;67758;39.572;2.652;2023-03-14T10:10:27;3.05;;;0.52;;
68449;SDS011;67758;39.572;2.652;2023-03-14T10:12:57;3.22;;;0.55;;
68449;SDS011;67758;39.572;2.652;2023-03-14T10:15:31;7.45;;;0.90;;
68449;SDS011;67758;39.572;2.652;2023-03-14T10:18:20;5.07;;;0.63;;
68449;SDS011;67758;39.572;2.652;2023-03-14T10:20:46;4.35;;;0.73;;
68449;SDS011;67758;39.572;2.652;2023-03-14T10:25:52;9.50;;;1.00;;
68449;SDS011;67758;39.572;2.652;2023-03-14T10:30:53;12.30;;;0.95;;
68449;SDS011;67758;39.572;2.652;2023-03-14T10:33:27;5.57;;;0.70;;
68449;SDS011;67758;39.572;2.652;2023-03-14T10:38:43;7.30;;;1.13;;
68449;SDS011;67758;39.572;2.652;2023-03-14T10:41:25;9.57;;;1.23;;
68449;SDS011;67758;39.572;2.652;2023-03-14T10:43:59;5.75;;;0.70;;
68449;SDS011;67758;39.572;2.652;2023-03-14T10:46:26;7.30;;;1.17;;
68449;SDS011;67758;39.572;2.652;2023-03-14T10:48:59;9.77;;;1.60;;
68449;SDS011;67758;39.572;2.652;2023-03-14T10:51:30;9.70;;;1.85;;
68449;SDS011;67758;39.572;2.652;2023-03-14T10:53:58;6.15;;;1.15;;
68449;SDS011;67758;39.572;2.652;2023-03-14T10:56:40;6.10;;;1.42;;
68449;SDS011;67758;39.572;2.652;2023-03-14T10:59:12;7.60;;;1.85;;
68449;SDS011;67758;39.572;2.652;2023-03-14T11:07:35;5.60;;;1.50;;
68449;SDS011;67758;39.572;2.652;2023-03-14T11:21:13;8.65;;;2.08;;
68449;SDS011;67758;39.572;2.652;2023-03-14T11:23:54;7.15;;;1.77;;
68449;SDS011;67758;39.572;2.652;2023-03-14T11:27:39;6.20;;;1.60;;
68449;SDS011;67758;39.572;2.652;2023-03-14T11:29:51;5.05;;;1.40;;
68449;SDS011;67758;39.572;2.652;2023-03-14T11:35:17;7.05;;;2.20;;
68449;SDS011;67758;39.572;2.652;2023-03-14T11:37:52;6.70;;;1.50;;
68449;SDS011;67758;39.572;2.652;2023-03-14T11:40:27;8.52;;;2.00;;
68449;SDS011;67758;39.572;2.652;2023-03-14T11:43:24;7.28;;;2.25;;
68449;SDS011;67758;39.572;2.652;2023-03-14T11:46:01;8.50;;;1.90;;
68449;SDS011;67758;39.572;2.652;2023-03-14T11:51:36;7.50;;;2.80;;
68449;SDS011;67758;39.572;2.652;2023-03-14T11:54:08;13.00;;;2.60;;
68449;SDS011;67758;39.572;2.652;2023-03-14T11:57:32;5.70;;;1.92;;
68449;SDS011;67758;39.572;2.652;2023-03-14T11:59:52;7.65;;;2.03;;
68449;SDS011;67758;39.572;2.652;2023-03-14T12:11:13;8.43;;;2.08;;
68449;SDS011;67758;39.572;2.652;2023-03-14T12:13:45;8.20;;;2.03;;
68449;SDS011;67758;39.572;2.652;2023-03-14T12:18:50;8.43;;;2.03;;
68449;SDS011;67758;39.572;2.652;2023-03-14T12:21:17;9.43;;;2.20;;
68449;SDS011;67758;39.572;2.652;2023-03-14T12:26:18;10.77;;;2.25;;
68449;SDS011;67758;39.572;2.652;2023-03-14T12:28:50;4.97;;;1.70;;
68449;SDS011;67758;39.572;2.652;2023-03-14T12:34:02;6.60;;;1.63;;
68449;SDS011;67758;39.572;2.652;2023-03-14T12:42:10;7.53;;;2.05;;
68449;SDS011;67758;39.572;2.652;2023-03-14T12:51:00;6.63;;;1.30;;
68449;SDS011;67758;39.572;2.652;2023-03-14T12:59:37;7.15;;;1.60;;
68449;SDS011;67758;39.572;2.652;2023-03-14T13:02:29;4.97;;;1.45;;
68449;SDS011;67758;39.572;2.652;2023-03-14T13:05:18;6.45;;;0.93;;
68449;SDS011;67758;39.572;2.652;2023-03-14T13:15:44;5.63;;;1.52;;
68449;SDS011;67758;39.572;2.652;2023-03-14T13:18:16;7.82;;;1.05;;
68449;SDS011;67758;39.572;2.652;2023-03-14T13:21:03;5.15;;;0.95;;
68449;SDS011;67758;39.572;2.652;2023-03-14T13:23:35;7.65;;;1.05;;
68449;SDS011;67758;39.572;2.652;2023-03-14T13:26:05;6.47;;;1.00;;
68449;SDS011;67758;39.572;2.652;2023-03-14T13:28:38;6.13;;;1.45;;
68449;SDS011;67758;39.572;2.652;2023-03-14T13:31:04;4.57;;;0.93;;
68449;SDS011;67758;39.572;2.652;2023-03-14T13:33:31;3.23;;;0.70;;
68449;SDS011;67758;39.572;2.652;2023-03-14T13:35:59;3.83;;;0.55;;
68449;SDS011;67758;39.572;2.652;2023-03-14T13:38:29;4.47;;;1.00;;
68449;SDS011;67758;39.572;2.652;2023-03-14T13:41:00;5.78;;;0.90;;
68449;SDS011;67758;39.572;2.652;2023-03-14T13:43:33;5.15;;;1.13;;
68449;SDS011;67758;39.572;2.652;2023-03-14T13:48:32;5.50;;;1.00;;
68449;SDS011;67758;39.572;2.652;2023-03-14T13:51:01;4.85;;;1.00;;
68449;SDS011;67758;39.572;2.652;2023-03-14T13:53:30;6.78;;;1.40;;
68449;SDS011;67758;39.572;2.652;2023-03-14T13:55:57;4.00;;;1.13;;
68449;SDS011;67758;39.572;2.652;2023-03-14T13:58:28;9.43;;;0.97;;
68449;SDS011;67758;39.572;2.652;2023-03-14T14:00:57;4.50;;;0.90;;
68449;SDS011;67758;39.572;2.652;2023-03-14T14:03:26;4.68;;;0.98;;
68449;SDS011;67758;39.572;2.652;2023-03-14T14:05:54;6.05;;;0.70;;
68449;SDS011;67758;39.572;2.652;2023-03-14T14:08:22;5.22;;;1.17;;
68449;SDS011;67758;39.572;2.652;2023-03-14T14:10:48;6.13;;;1.30;;
68449;SDS011;67758;39.572;2.652;2023-03-14T14:13:15;4.53;;;0.98;;
68449;SDS011;67758;39.572;2.652;2023-03-14T14:15:44;8.93;;;2.17;;
68449;SDS011;67758;39.572;2.652;2023-03-14T14:18:14;7.80;;;1.63;;
68449;SDS011;67758;39.572;2.652;2023-03-14T14:20:44;6.20;;;1.15;;
68449;SDS011;67758;39.572;2.652;2023-03-14T14:23:12;4.82;;;1.00;;
68449;SDS011;67758;39.572;2.652;2023-03-14T14:25:40;6.13;;;1.30;;
68449;SDS011;67758;39.572;2.652;2023-03-14T14:31:04;4.78;;;1.00;;
68449;SDS011;67758;39.572;2.652;2023-03-14T14:33:40;6.63;;;1.00;;
68449;SDS011;67758;39.572;2.652;2023-03-14T14:36:15;4.43;;;0.77;;
68449;SDS011;67758;39.572;2.652;2023-03-14T14:38:51;5.03;;;0.70;;
68449;SDS011;67758;39.572;2.652;2023-03-14T14:41:18;6.38;;;1.08;;
68449;SDS011;67758;39.572;2.652;2023-03-14T14:43:43;3.10;;;0.60;;
68449;SDS011;67758;39.572;2.652;2023-03-14T14:46:09;4.28;;;0.90;;
68449;SDS011;67758;39.572;2.652;2023-03-14T14:48:38;4.88;;;0.70;;
68449;SDS011;67758;39.572;2.652;2023-03-14T14:51:05;5.93;;;0.80;;
68449;SDS011;67758;39.572;2.652;2023-03-14T14:53:42;8.60;;;0.93;;
68449;SDS011;67758;39.572;2.652;2023-03-14T14:56:25;4.15;;;0.60;;
68449;SDS011;67758;39.572;2.652;2023-03-14T14:58:56;4.45;;;0.80;;
68449;SDS011;67758;39.572;2.652;2023-03-14T15:01:24;5.23;;;0.70;;
68449;SDS011;67758;39.572;2.652;2023-03-14T15:03:55;6.07;;;0.70;;
68449;SDS011;67758;39.572;2.652;2023-03-14T15:06:21;5.55;;;1.15;;
68449;SDS011;67758;39.572;2.652;2023-03-14T15:08:49;5.20;;;1.15;;
68449;SDS011;67758;39.572;2.652;2023-03-14T15:11:19;3.93;;;0.80;;
68449;SDS011;67758;39.572;2.652;2023-03-14T15:13:47;5.20;;;1.33;;
68449;SDS011;67758;39.572;2.652;2023-03-14T15:16:15;5.65;;;0.88;;
68449;SDS011;67758;39.572;2.652;2023-03-14T15:18:43;4.67;;;0.80;;
68449;SDS011;67758;39.572;2.652;2023-03-14T15:21:10;3.72;;;0.68;;
68449;SDS011;67758;39.572;2.652;2023-03-14T15:23:36;6.43;;;1.00;;
68449;SDS011;67758;39.572;2.652;2023-03-14T15:26:02;6.15;;;1.20;;
68449;SDS011;67758;39.572;2.652;2023-03-14T15:28:30;6.47;;;1.10;;
68449;SDS011;67758;39.572;2.652;2023-03-14T15:30:57;4.43;;;0.80;;
68449;SDS011;67758;39.572;2.652;2023-03-14T15:33:24;5.10;;;1.00;;
68449;SDS011;67758;39.572;2.652;2023-03-14T15:35:51;3.30;;;0.73;;
68449;SDS011;67758;39.572;2.652;2023-03-14T15:38:18;3.90;;;0.57;;
68449;SDS011;67758;39.572;2.652;2023-03-14T15:40:49;5.18;;;0.90;;
68449;SDS011;67758;39.572;2.652;2023-03-14T15:43:15;7.20;;;1.00;;
68449;SDS011;67758;39.572;2.652;2023-03-14T15:45:42;6.55;;;0.70;;
68449;SDS011;67758;39.572;2.652;2023-03-14T15:48:14;5.57;;;1.00;;
68449;SDS011;67758;39.572;2.652;2023-03-14T15:50:41;5.65;;;0.60;;
68449;SDS011;67758;39.572;2.652;2023-03-14T15:53:07;4.95;;;0.57;;
68449;SDS011;67758;39.572;2.652;2023-03-14T15:55:33;6.37;;;0.90;;
68449;SDS011;67758;39.572;2.652;2023-03-14T15:57:58;5.55;;;0.80;;
68449;SDS011;67758;39.572;2.652;2023-03-14T16:00:25;6.83;;;0.77;;
68449;SDS011;67758;39.572;2.652;2023-03-14T16:02:51;3.47;;;0.50;;
68449;SDS011;67758;39.572;2.652;2023-03-14T16:05:17;5.32;;;0.63;;
68449;SDS011;67758;39.572;2.652;2023-03-14T16:07:46;6.23;;;1.00;;
68449;SDS011;67758;39.572;2.652;2023-03-14T16:10:12;3.58;;;0.68;;
68449;SDS011;67758;39.572;2.652;2023-03-14T16:12:39;4.70;;;0.80;;
68449;SDS011;67758;39.572;2.652;2023-03-14T16:15:05;3.88;;;0.70;;
68449;SDS011;67758;39.572;2.652;2023-03-14T16:17:31;7.30;;;0.85;;
68449;SDS011;67758;39.572;2.652;2023-03-14T16:19:57;4.20;;;0.70;;
68449;SDS011;67758;39.572;2.652;2023-03-14T16:22:23;4.90;;;0.60;;
68449;SDS011;67758;39.572;2.652;2023-03-14T16:24:49;6.37;;;0.93;;